Time;durP1;ratioP1;P1;durP2;ratioP2;P2;SDS_P1;SDS_P2;PMS_P1;PMS_P2;Temp;Humidity;BMP_temperature;BMP_pressure;BME280_temperature;BME280_humidity;BME280_pressure;Samples;Min_cycle;Max_cycle;Signal;HPM_P1;HPM_P2
2021/12/19 00:09:28;;;;;;;23.30;10.20;;;7.10;99.90;;;;;;5092137;28;20117;-72
2021/12/19 00:11:55;;;;;;;21.50;9.73;;;7.10;99.90;;;;;;5089408;28;20050;-71
2021/12/19 00:14:23;;;;;;;23.00;9.85;;;7.10;99.90;;;;;;5092633;28;20382;-71
2021/12/19 00:16:50;;;;;;;19.92;8.70;;;7.20;99.90;;;;;;5092630;28;20131;-72
2021/12/19 00:19:16;;;;;;;19.98;8.10;;;7.10;99.90;;;;;;5092056;28;20070;-71
2021/12/19 00:21:41;;;;;;;20.80;8.77;;;7.20;99.90;;;;;;5091951;28;20383;-73
2021/12/19 00:24:07;;;;;;;19.30;7.95;;;7.10;99.90;;;;;;5126495;27;20418;-73
2021/12/19 00:26:34;;;;;;;14.98;7.30;;;7.10;99.90;;;;;;5127309;27;20496;-71
2021/12/19 00:29:03;;;;;;;19.65;7.43;;;7.10;99.90;;;;;;5126820;27;20207;-71
2021/12/19 00:31:30;;;;;;;14.57;7.40;;;7.10;99.90;;;;;;5092326;28;20079;-72
2021/12/19 00:33:56;;;;;;;14.95;7.88;;;7.20;99.90;;;;;;5092409;28;20509;-71
2021/12/19 00:36:22;;;;;;;16.15;7.72;;;7.20;99.90;;;;;;5091645;28;20443;-71
2021/12/19 00:38:48;;;;;;;23.52;7.47;;;7.20;99.90;;;;;;5091784;28;20505;-71
2021/12/19 00:41:14;;;;;;;14.13;7.65;;;7.20;99.90;;;;;;5092006;28;20401;-71
2021/12/19 00:43:45;;;;;;;16.20;7.53;;;7.20;99.90;;;;;;5092559;28;20071;-70
2021/12/19 00:46:15;;;;;;;16.35;7.45;;;7.20;99.90;;;;;;5092250;28;20470;-71
2021/12/19 00:48:46;;;;;;;16.67;7.07;;;7.20;99.90;;;;;;5092150;28;20095;-72
2021/12/19 00:51:15;;;;;;;17.17;7.38;;;7.20;99.90;;;;;;5075201;28;20073;-71
2021/12/19 00:53:43;;;;;;;16.67;7.95;;;7.20;99.90;;;;;;5092390;28;20497;-71
2021/12/19 00:56:08;;;;;;;18.15;7.53;;;7.20;99.90;;;;;;5092723;28;20036;-71
2021/12/19 00:58:34;;;;;;;18.92;7.70;;;7.20;99.90;;;;;;5075524;28;20126;-70
2021/12/19 01:01:01;;;;;;;20.73;8.07;;;7.20;99.90;;;;;;5092231;28;20055;-71
2021/12/19 01:03:27;;;;;;;19.85;8.18;;;7.20;99.90;;;;;;5091884;28;20079;-71
2021/12/19 01:05:53;;;;;;;17.65;7.43;;;7.20;99.90;;;;;;5126598;27;20079;-73
2021/12/19 01:08:19;;;;;;;19.25;7.93;;;7.20;99.90;;;;;;5090838;28;20032;-71
2021/12/19 01:10:46;;;;;;;18.42;7.85;;;7.20;99.90;;;;;;5126343;27;20039;-71
2021/12/19 01:13:13;;;;;;;17.67;7.95;;;7.30;99.90;;;;;;5092311;28;20036;-72
2021/12/19 01:15:39;;;;;;;21.02;8.68;;;7.20;99.90;;;;;;5075255;28;20039;-71
2021/12/19 01:18:06;;;;;;;21.67;8.45;;;7.20;99.90;;;;;;5091536;28;20060;-71
2021/12/19 01:20:34;;;;;;;24.13;8.82;;;7.20;99.90;;;;;;5092359;28;20047;-71
2021/12/19 01:23:02;;;;;;;24.00;9.40;;;7.20;99.90;;;;;;5092460;28;20110;-71
2021/12/19 01:25:27;;;;;;;21.55;9.80;;;7.30;99.90;;;;;;5092197;28;20036;-71
2021/12/19 01:27:53;;;;;;;20.70;9.10;;;7.20;99.90;;;;;;5126116;27;20177;-71
2021/12/19 01:30:19;;;;;;;21.60;9.43;;;7.30;99.90;;;;;;5091948;28;20109;-71
2021/12/19 01:32:45;;;;;;;20.40;9.10;;;7.30;99.90;;;;;;5125633;28;20076;-71
2021/12/19 01:35:13;;;;;;;23.13;9.48;;;7.30;99.90;;;;;;5091560;28;20405;-71
2021/12/19 01:37:39;;;;;;;23.77;9.18;;;7.30;99.90;;;;;;5092336;28;20046;-71
2021/12/19 01:40:07;;;;;;;21.75;8.77;;;7.30;99.90;;;;;;5091718;28;20039;-70
2021/12/19 01:42:36;;;;;;;25.02;8.90;;;7.30;99.90;;;;;;5092769;28;20511;-71
2021/12/19 01:45:03;;;;;;;22.17;8.73;;;7.30;99.90;;;;;;5078556;28;20040;-72
2021/12/19 01:47:28;;;;;;;17.73;8.45;;;7.30;99.90;;;;;;5095333;28;20051;-71
2021/12/19 01:49:55;;;;;;;16.00;7.18;;;7.30;99.90;;;;;;5095462;28;20046;-71
2021/12/19 01:52:22;;;;;;;9.75;4.88;;;7.20;99.90;;;;;;5095263;28;20402;-72
2021/12/19 01:54:49;;;;;;;9.05;3.90;;;7.30;99.90;;;;;;5078282;28;20048;-72
2021/12/19 01:57:14;;;;;;;7.80;3.75;;;7.30;99.90;;;;;;5095242;28;20085;-71
2021/12/19 01:59:40;;;;;;;8.38;4.10;;;7.30;99.90;;;;;;5094731;28;20043;-70
2021/12/19 02:02:06;;;;;;;8.10;3.35;;;7.30;99.90;;;;;;5129089;27;20048;-71
2021/12/19 02:04:33;;;;;;;7.00;3.38;;;7.30;99.90;;;;;;5129815;27;20047;-73
2021/12/19 02:07:00;;;;;;;9.25;3.45;;;7.30;99.90;;;;;;5095064;28;20442;-71
2021/12/19 02:09:26;;;;;;;7.88;3.30;;;7.30;99.90;;;;;;5095303;28;20039;-71
2021/12/19 02:11:52;;;;;;;6.43;3.78;;;7.30;99.90;;;;;;5094940;28;20040;-72
2021/12/19 02:14:19;;;;;;;8.23;4.25;;;7.30;99.90;;;;;;5094666;28;20042;-71
2021/12/19 02:16:45;;;;;;;11.40;4.50;;;7.30;99.90;;;;;;5094447;28;20488;-73
2021/12/19 02:19:12;;;;;;;11.48;5.93;;;7.30;99.90;;;;;;5094378;28;20087;-71
2021/12/19 02:21:38;;;;;;;9.00;4.60;;;7.30;99.90;;;;;;5094420;28;20482;-71
2021/12/19 02:24:08;;;;;;;10.65;4.60;;;7.20;99.90;;;;;;5093539;28;20032;-71
2021/12/19 02:26:37;;;;;;;12.82;4.75;;;7.30;99.90;;;;;;5128687;27;20036;-71
2021/12/19 02:29:03;;;;;;;8.90;3.80;;;7.20;99.90;;;;;;5094343;28;20085;-70
2021/12/19 02:31:30;;;;;;;6.47;3.50;;;7.30;99.90;;;;;;5094912;28;20066;-71
2021/12/19 02:34:11;;;;;;;6.50;2.67;;;7.30;99.90;;;;;;5095106;28;20036;-73
2021/12/19 02:39:49;;;;;;;4.43;2.50;;;7.20;99.90;;;;;;5094073;28;20044;-72
2021/12/19 02:50:07;;;;;;;5.93;2.65;;;7.20;99.90;;;;;;5093431;28;20090;-71
2021/12/19 02:52:33;;;;;;;5.05;2.38;;;7.20;99.90;;;;;;5094128;28;20036;-71
2021/12/19 02:54:59;;;;;;;5.80;2.47;;;7.20;99.90;;;;;;5093696;28;20122;-71
2021/12/19 02:57:26;;;;;;;6.43;2.28;;;7.20;99.90;;;;;;5128021;27;20385;-73
2021/12/19 02:59:51;;;;;;;2.80;1.83;;;7.20;99.90;;;;;;5093784;28;20109;-74
2021/12/19 03:02:18;;;;;;;2.63;1.38;;;7.10;99.90;;;;;;5127788;27;20119;-71
2021/12/19 03:04:58;;;;;;;3.30;1.00;;;7.10;99.90;;;;;;5094166;28;20059;-71
2021/12/19 03:07:25;;;;;;;2.50;1.00;;;7.10;99.90;;;;;;5094253;28;20044;-73
2021/12/19 03:10:44;;;;;;;1.75;0.90;;;7.10;99.90;;;;;;5110462;28;20128;-73
2021/12/19 03:18:12;;;;;;;1.35;0.88;;;7.10;99.90;;;;;;5092166;28;20336;-71
2021/12/19 03:20:39;;;;;;;1.75;1.25;;;7.00;99.90;;;;;;5092940;28;20114;-71
2021/12/19 03:23:07;;;;;;;3.42;1.20;;;7.00;99.90;;;;;;5093351;28;20493;-73
2021/12/19 03:25:34;;;;;;;3.10;1.50;;;7.00;99.90;;;;;;5093259;28;20127;-71
2021/12/19 03:28:01;;;;;;;3.90;0.93;;;7.10;99.90;;;;;;5093421;28;20487;-70
2021/12/19 03:30:27;;;;;;;4.55;1.42;;;7.00;99.90;;;;;;5093591;28;20039;-72
2021/12/19 03:32:53;;;;;;;3.40;1.40;;;7.00;99.90;;;;;;5093478;28;20044;-71
2021/12/19 03:35:20;;;;;;;2.42;1.30;;;7.00;99.90;;;;;;5093489;28;20086;-69
2021/12/19 03:37:47;;;;;;;2.92;1.23;;;7.00;99.90;;;;;;5092755;28;20048;-71
2021/12/19 03:40:21;;;;;;;3.28;1.23;;;7.00;99.90;;;;;;5110056;28;20131;-71
2021/12/19 03:42:49;;;;;;;2.70;1.08;;;6.90;99.90;;;;;;5093753;28;20062;-72
2021/12/19 03:45:18;;;;;;;4.22;1.10;;;7.00;99.90;;;;;;5093179;28;20048;-71
2021/12/19 03:47:45;;;;;;;3.23;1.60;;;6.90;99.90;;;;;;5093460;28;20040;-71
2021/12/19 03:50:15;;;;;;;3.30;1.67;;;6.90;99.90;;;;;;5092933;28;20043;-71
2021/12/19 03:52:41;;;;;;;2.65;1.10;;;7.00;99.90;;;;;;5090536;28;20043;-72
2021/12/19 03:55:07;;;;;;;3.83;1.38;;;6.90;99.90;;;;;;5127316;27;20387;-71
2021/12/19 03:57:33;;;;;;;2.95;1.40;;;6.90;99.90;;;;;;5093144;28;20040;-71
2021/12/19 03:59:59;;;;;;;2.17;1.00;;;6.90;99.90;;;;;;5126813;27;20042;-72
2021/12/19 04:02:26;;;;;;;2.92;1.30;;;6.90;99.90;;;;;;5093030;28;20078;-74
2021/12/19 04:04:54;;;;;;;3.40;1.10;;;6.90;99.90;;;;;;5092051;28;20546;-72
2021/12/19 04:07:21;;;;;;;3.08;1.15;;;6.90;99.90;;;;;;5092504;28;20134;-71
2021/12/19 04:09:47;;;;;;;2.28;1.33;;;6.90;99.90;;;;;;5092971;28;20093;-71
2021/12/19 04:12:13;;;;;;;2.75;1.10;;;6.90;99.90;;;;;;5092452;28;20048;-71
2021/12/19 04:14:39;;;;;;;4.10;1.20;;;6.90;99.90;;;;;;5092666;28;20032;-70
2021/12/19 04:17:05;;;;;;;2.75;1.30;;;6.90;99.90;;;;;;5092348;28;20122;-71
2021/12/19 04:19:31;;;;;;;3.30;1.40;;;6.90;99.90;;;;;;5091830;28;20135;-72
2021/12/19 04:21:58;;;;;;;4.50;1.42;;;6.90;99.90;;;;;;5092638;28;20043;-70
2021/12/19 04:24:24;;;;;;;3.22;1.50;;;7.00;99.90;;;;;;5092884;28;20048;-70
2021/12/19 04:26:49;;;;;;;2.85;1.33;;;6.90;99.90;;;;;;5092731;28;20039;-73
2021/12/19 04:29:15;;;;;;;4.78;1.75;;;6.90;99.90;;;;;;5092399;28;20083;-73
2021/12/19 04:31:41;;;;;;;2.70;1.40;;;6.90;99.90;;;;;;5092189;28;20044;-69
2021/12/19 04:34:10;;;;;;;2.25;1.20;;;6.90;99.90;;;;;;5075534;28;20052;-71
2021/12/19 04:36:40;;;;;;;4.27;1.43;;;6.90;99.90;;;;;;5093291;28;20105;-71
2021/12/19 04:50:54;;;;;;;5.18;1.30;;;6.90;99.90;;;;;;5092296;28;20173;-71
2021/12/19 05:00:54;;;;;;;2.38;1.10;;;6.80;99.90;;;;;;5092025;28;20090;-70
2021/12/19 05:06:33;;;;;;;3.78;1.30;;;6.70;99.90;;;;;;5092393;28;20048;-74
2021/12/19 05:14:33;;;;;;;6.30;1.48;;;6.70;99.90;;;;;;5092685;28;20059;-70
2021/12/19 05:17:05;;;;;;;5.63;1.50;;;6.70;99.90;;;;;;5092258;28;20040;-73
2021/12/19 05:19:47;;;;;;;5.75;1.60;;;6.70;99.90;;;;;;5096182;28;20059;-70
2021/12/19 05:22:13;;;;;;;4.28;1.73;;;6.70;99.90;;;;;;5095524;28;20489;-71
2021/12/19 05:24:50;;;;;;;4.88;1.90;;;6.70;99.90;;;;;;5095794;28;20082;-73
2021/12/19 05:27:16;;;;;;;3.50;1.38;;;6.70;99.90;;;;;;5095629;28;20051;-70
2021/12/19 05:29:42;;;;;;;7.40;1.77;;;6.70;99.90;;;;;;5095653;28;20044;-72
2021/12/19 05:32:11;;;;;;;4.97;1.70;;;6.70;99.90;;;;;;5095818;28;20182;-70
2021/12/19 05:34:37;;;;;;;3.40;1.60;;;6.70;99.90;;;;;;5095537;28;20044;-72
2021/12/19 05:45:20;;;;;;;5.00;2.15;;;6.70;99.90;;;;;;5094733;28;20044;-71
2021/12/19 05:47:48;;;;;;;7.90;2.30;;;6.70;99.90;;;;;;5095497;28;20044;-71
2021/12/19 05:50:21;;;;;;;6.07;2.15;;;6.70;99.90;;;;;;5095486;28;20078;-71
2021/12/19 05:52:48;;;;;;;11.05;3.03;;;6.70;99.90;;;;;;5078602;28;20218;-70
2021/12/19 05:55:15;;;;;;;6.80;2.50;;;6.70;99.90;;;;;;5095318;28;20082;-74
2021/12/19 05:57:41;;;;;;;6.95;2.90;;;6.70;99.90;;;;;;5094625;28;20481;-73
2021/12/19 06:00:12;;;;;;;6.60;2.55;;;6.70;99.90;;;;;;5111630;28;20051;-71
2021/12/19 06:02:39;;;;;;;8.38;2.65;;;6.70;99.90;;;;;;5075417;28;20055;-71
2021/12/19 06:05:05;;;;;;;8.63;2.80;;;6.70;99.90;;;;;;5095047;28;20498;-71
2021/12/19 06:07:31;;;;;;;9.93;3.03;;;6.70;99.90;;;;;;5095195;28;20044;-71
2021/12/19 06:09:59;;;;;;;6.40;2.70;;;6.70;99.90;;;;;;5094973;28;20424;-73
2021/12/19 06:12:25;;;;;;;10.05;2.80;;;6.70;99.90;;;;;;5094709;28;20040;-73
2021/12/19 06:14:50;;;;;;;6.68;2.50;;;6.70;99.90;;;;;;5095273;28;20058;-72
2021/12/19 06:17:16;;;;;;;7.20;2.85;;;6.70;99.90;;;;;;5129031;27;20470;-70
2021/12/19 06:19:42;;;;;;;11.23;3.00;;;6.70;99.90;;;;;;5128652;27;20040;-71
2021/12/19 06:22:10;;;;;;;10.25;2.83;;;6.70;99.90;;;;;;5129659;27;20039;-71
2021/12/19 06:24:36;;;;;;;10.77;3.10;;;6.70;99.90;;;;;;5094606;28;20351;-71
2021/12/19 06:27:02;;;;;;;16.17;4.10;;;6.70;99.90;;;;;;5128495;27;20497;-71
2021/12/19 06:29:29;;;;;;;12.07;3.83;;;6.70;99.90;;;;;;5094399;28;20079;-72
2021/12/19 06:31:56;;;;;;;12.93;4.00;;;6.80;99.90;;;;;;5095054;28;20382;-71
2021/12/19 06:34:22;;;;;;;15.85;4.65;;;6.80;99.90;;;;;;5094650;28;20067;-70
2021/12/19 06:36:47;;;;;;;18.10;5.45;;;6.80;99.90;;;;;;5094455;28;20079;-72
2021/12/19 06:39:13;;;;;;;20.08;5.68;;;6.80;99.90;;;;;;5093710;28;20036;-71
2021/12/19 06:41:42;;;;;;;15.63;6.50;;;6.80;99.90;;;;;;5094019;28;20083;-81
2021/12/19 06:44:08;;;;;;;20.75;6.90;;;6.80;99.90;;;;;;5111185;28;20043;-82
2021/12/19 06:46:36;;;;;;;24.95;6.88;;;6.80;99.90;;;;;;5111396;28;20040;-83
2021/12/19 06:49:02;;;;;;;18.15;6.57;;;6.80;99.90;;;;;;5128588;27;20054;-81
2021/12/19 06:51:29;;;;;;;19.15;6.45;;;6.90;99.90;;;;;;5094683;28;20120;-80
2021/12/19 06:53:55;;;;;;;23.42;7.10;;;6.80;99.90;;;;;;5077007;28;20110;-81
2021/12/19 06:56:21;;;;;;;19.50;6.72;;;6.90;99.90;;;;;;5127861;27;20032;-80
2021/12/19 06:58:46;;;;;;;26.23;7.63;;;6.90;99.90;;;;;;5077272;28;20126;-82
2021/12/19 07:01:15;;;;;;;28.90;7.18;;;6.90;99.90;;;;;;5094393;28;20046;-82
2021/12/19 07:03:40;;;;;;;31.42;7.43;;;6.90;99.90;;;;;;5093869;28;20130;-81
2021/12/19 07:06:06;;;;;;;26.00;8.43;;;6.90;99.90;;;;;;5093839;28;20150;-79
2021/12/19 07:08:32;;;;;;;28.13;9.40;;;6.90;99.90;;;;;;5076336;28;20051;-71
2021/12/19 07:10:57;;;;;;;33.55;9.07;;;6.90;99.90;;;;;;5093916;28;20416;-70
2021/12/19 07:13:23;;;;;;;27.50;8.82;;;6.90;99.90;;;;;;5076913;28;20047;-72
2021/12/19 07:15:50;;;;;;;29.63;9.05;;;6.90;99.90;;;;;;5093832;28;20119;-70
2021/12/19 07:18:17;;;;;;;26.10;9.10;;;6.90;99.90;;;;;;5093607;28;20071;-73
2021/12/19 07:20:43;;;;;;;26.10;8.75;;;6.90;99.90;;;;;;5093484;28;20062;-71
2021/12/19 07:23:13;;;;;;;22.15;9.10;;;6.90;99.90;;;;;;5093263;28;20040;-71
2021/12/19 07:25:40;;;;;;;29.25;9.30;;;7.00;99.90;;;;;;5093360;28;20035;-71
2021/12/19 07:28:06;;;;;;;27.70;8.75;;;6.90;99.90;;;;;;5093443;28;20052;-70
2021/12/19 07:30:35;;;;;;;23.40;8.00;;;6.90;99.90;;;;;;5093441;28;20084;-71
2021/12/19 07:33:03;;;;;;;22.17;7.38;;;6.90;99.90;;;;;;5076620;28;20044;-71
2021/12/19 07:35:30;;;;;;;21.92;7.10;;;6.90;99.90;;;;;;5093294;28;20050;-72
2021/12/19 07:37:56;;;;;;;23.02;7.90;;;6.90;99.90;;;;;;5092616;28;20036;-70
2021/12/19 07:40:24;;;;;;;23.60;7.45;;;6.90;99.90;;;;;;5092187;28;20048;-70
2021/12/19 07:42:50;;;;;;;18.90;6.10;;;7.00;99.90;;;;;;5093607;28;20050;-70
2021/12/19 07:45:16;;;;;;;21.45;6.53;;;7.00;99.90;;;;;;5093284;28;20044;-72
2021/12/19 07:47:44;;;;;;;19.23;6.47;;;6.90;99.90;;;;;;5092614;28;20036;-70
2021/12/19 07:50:11;;;;;;;23.92;7.43;;;7.00;99.90;;;;;;5092128;28;20058;-73
2021/12/19 07:52:37;;;;;;;27.77;7.13;;;7.00;99.90;;;;;;5093109;28;20493;-71
2021/12/19 07:55:04;;;;;;;24.00;6.97;;;7.00;99.90;;;;;;5076439;28;20040;-73
2021/12/19 07:57:30;;;;;;;26.00;7.53;;;7.00;99.90;;;;;;5092930;28;20420;-71
2021/12/19 07:59:56;;;;;;;21.27;7.72;;;7.00;99.90;;;;;;5092818;28;20535;-72
2021/12/19 08:02:22;;;;;;;24.65;7.47;;;7.00;99.90;;;;;;5076074;28;20134;-72
2021/12/19 08:04:47;;;;;;;24.17;7.60;;;7.00;99.90;;;;;;5092984;28;20124;-72
2021/12/19 08:07:16;;;;;;;21.88;7.90;;;7.00;99.90;;;;;;5092182;28;20043;-70
2021/12/19 08:09:58;;;;;;;24.05;7.03;;;7.00;99.90;;;;;;5092811;28;20044;-71
2021/12/19 08:12:26;;;;;;;23.63;6.90;;;7.00;99.90;;;;;;5092885;28;20048;-70
2021/12/19 08:14:51;;;;;;;20.08;7.03;;;7.00;99.90;;;;;;5075854;28;20471;-70
2021/12/19 08:17:21;;;;;;;20.83;6.75;;;7.00;99.90;;;;;;5075219;28;20046;-71
2021/12/19 08:19:48;;;;;;;17.23;5.63;;;7.00;99.90;;;;;;5092712;28;20052;-71
2021/12/19 08:22:14;;;;;;;14.23;5.20;;;7.00;99.90;;;;;;5093199;28;20044;-72
2021/12/19 08:24:41;;;;;;;18.10;5.80;;;7.00;99.90;;;;;;5092693;28;20086;-70
2021/12/19 08:27:07;;;;;;;18.23;6.28;;;7.00;99.90;;;;;;5092613;28;20048;-71
2021/12/19 08:29:33;;;;;;;17.60;6.78;;;7.00;99.90;;;;;;5092631;28;20055;-71
2021/12/19 08:31:59;;;;;;;24.80;6.72;;;7.10;99.90;;;;;;5092199;28;20044;-70
2021/12/19 08:34:25;;;;;;;18.90;6.25;;;7.10;99.90;;;;;;5092493;28;20082;-71
2021/12/19 08:36:50;;;;;;;22.42;6.68;;;7.10;99.90;;;;;;5092827;28;20043;-70
2021/12/19 08:39:18;;;;;;;23.75;6.32;;;7.10;99.90;;;;;;5126818;28;20499;-71
2021/12/19 08:41:43;;;;;;;22.60;7.40;;;7.10;99.90;;;;;;5109476;28;20043;-71
2021/12/19 08:44:09;;;;;;;19.85;6.38;;;7.10;99.90;;;;;;5075596;28;20462;-70
2021/12/19 08:46:35;;;;;;;26.45;7.70;;;7.10;99.90;;;;;;5125554;28;20382;-72
2021/12/19 08:49:05;;;;;;;23.58;7.47;;;7.10;99.90;;;;;;5093333;28;20059;-71
2021/12/19 08:51:32;;;;;;;17.52;6.93;;;7.10;99.90;;;;;;5093609;28;20557;-71
2021/12/19 08:54:02;;;;;;;27.65;6.93;;;7.00;99.90;;;;;;5096600;28;20042;-71
2021/12/19 08:56:28;;;;;;;18.00;6.60;;;7.10;99.90;;;;;;5096264;28;20039;-71
2021/12/19 08:58:55;;;;;;;21.52;7.28;;;7.10;99.90;;;;;;5079177;28;20470;-70
2021/12/19 09:01:21;;;;;;;20.05;6.18;;;7.10;99.90;;;;;;5095921;28;20048;-71
2021/12/19 09:03:46;;;;;;;19.85;6.18;;;7.10;99.90;;;;;;5095929;28;20036;-74
2021/12/19 09:06:12;;;;;;;19.90;5.68;;;7.10;99.90;;;;;;5078525;28;20054;-71
2021/12/19 09:08:38;;;;;;;24.67;6.03;;;7.10;99.90;;;;;;5095886;28;20036;-71
2021/12/19 09:11:04;;;;;;;22.65;6.07;;;7.10;99.90;;;;;;5130349;27;20419;-71
2021/12/19 09:13:29;;;;;;;20.33;5.45;;;7.10;99.90;;;;;;5112866;28;20039;-71
2021/12/19 09:15:55;;;;;;;21.02;6.43;;;7.10;99.90;;;;;;5129824;27;20048;-71
2021/12/19 09:18:21;;;;;;;16.95;5.20;;;7.10;99.90;;;;;;5129769;27;20381;-73
2021/12/19 09:20:49;;;;;;;22.35;5.78;;;7.10;99.90;;;;;;5129674;27;20044;-71
2021/12/19 09:23:16;;;;;;;19.10;5.38;;;7.10;99.90;;;;;;5095544;28;20109;-71
2021/12/19 09:25:42;;;;;;;16.27;5.25;;;7.10;99.90;;;;;;5095532;28;20055;-72
2021/12/19 09:28:08;;;;;;;19.88;5.75;;;7.10;99.90;;;;;;5095873;28;20036;-75
2021/12/19 09:30:34;;;;;;;24.92;5.90;;;7.20;99.90;;;;;;5095405;28;20483;-73
2021/12/19 09:33:00;;;;;;;20.98;5.20;;;7.10;99.90;;;;;;5095702;28;20429;-70
2021/12/19 09:35:26;;;;;;;20.77;5.70;;;7.20;99.90;;;;;;5095695;28;20032;-73
2021/12/19 09:37:52;;;;;;;13.82;4.95;;;7.20;99.90;;;;;;5095555;28;20200;-72
2021/12/19 09:40:24;;;;;;;16.38;4.85;;;7.20;99.90;;;;;;5094639;28;20386;-71
2021/12/19 09:43:00;;;;;;;21.48;5.85;;;7.20;99.90;;;;;;5095449;28;20059;-71
2021/12/19 09:45:26;;;;;;;15.48;5.25;;;7.20;99.90;;;;;;5095909;28;20036;-71
2021/12/19 09:47:52;;;;;;;20.77;5.32;;;7.20;99.90;;;;;;5129868;27;20380;-73
2021/12/19 09:50:18;;;;;;;17.10;4.50;;;7.20;99.90;;;;;;5094255;28;20486;-70
2021/12/19 09:52:45;;;;;;;17.98;5.05;;;7.30;99.90;;;;;;5095487;28;20036;-72
2021/12/19 09:55:16;;;;;;;20.45;4.50;;;7.30;99.90;;;;;;5095582;28;20044;-73
2021/12/19 09:57:41;;;;;;;13.98;3.83;;;7.30;99.90;;;;;;5075832;28;20052;-71
2021/12/19 10:00:08;;;;;;;15.13;4.05;;;7.30;99.90;;;;;;5109295;28;20037;-71
2021/12/19 10:02:33;;;;;;;15.98;4.18;;;7.30;99.90;;;;;;5074534;28;20041;-73
2021/12/19 10:05:14;;;;;;;17.08;4.68;;;7.30;99.90;;;;;;5109588;28;20401;-70
2021/12/19 10:07:53;;;;;;;14.82;3.80;;;7.40;99.90;;;;;;5071348;28;20075;-71
2021/12/19 10:10:33;;;;;;;12.60;4.18;;;7.40;99.90;;;;;;5074973;28;20059;-70
2021/12/19 10:12:59;;;;;;;17.70;4.60;;;7.40;99.90;;;;;;5075284;28;20048;-71
2021/12/19 10:15:29;;;;;;;16.38;4.40;;;7.40;99.90;;;;;;5085273;28;20040;-71
2021/12/19 10:18:21;;;;;;;17.48;4.53;;;7.40;99.90;;;;;;5124943;27;21146;-71
2021/12/19 10:20:52;;;;;;;17.17;4.28;;;7.50;99.90;;;;;;5090191;28;20055;-71
2021/12/19 10:23:24;;;;;;;16.95;4.20;;;7.40;99.90;;;;;;5128046;27;20047;-71
2021/12/19 10:26:02;;;;;;;17.33;4.13;;;7.40;99.90;;;;;;5093774;28;20082;-71
2021/12/19 10:28:30;;;;;;;19.90;4.82;;;7.50;99.90;;;;;;5126374;27;20036;-70
2021/12/19 10:30:57;;;;;;;19.33;4.70;;;7.50;99.90;;;;;;5092632;28;20386;-70
2021/12/19 10:33:29;;;;;;;14.55;4.25;;;7.50;99.90;;;;;;5090341;28;20498;-73
2021/12/19 10:36:04;;;;;;;15.40;4.22;;;7.50;99.90;;;;;;5089056;28;20050;-74
2021/12/19 10:38:44;;;;;;;15.05;3.58;;;7.50;99.90;;;;;;5094921;28;20177;-70
2021/12/19 10:41:15;;;;;;;;;;;7.50;99.90;;;;;;5094214;28;20040;-71
2021/12/19 10:43:56;;;;;;;17.17;4.55;;;7.50;99.90;;;;;;5093531;28;19916;-70
2021/12/19 10:46:27;;;;;;;10.88;3.20;;;7.50;99.90;;;;;;5092903;28;20044;-71
2021/12/19 10:48:53;;;;;;;11.63;3.70;;;7.50;99.90;;;;;;5093546;28;20548;-71
2021/12/19 10:51:20;;;;;;;13.30;3.97;;;7.50;99.90;;;;;;5128470;27;20040;-71
2021/12/19 10:53:49;;;;;;;16.08;3.83;;;7.50;99.90;;;;;;5092914;28;20036;-73
2021/12/19 10:56:18;;;;;;;13.18;3.58;;;7.50;99.90;;;;;;5090931;28;20036;-70
2021/12/19 10:58:45;;;;;;;12.45;3.55;;;7.50;99.90;;;;;;5085702;28;20040;-71
2021/12/19 11:01:14;;;;;;;15.48;4.15;;;7.50;99.90;;;;;;5094031;28;20040;-71
2021/12/19 11:03:44;;;;;;;12.52;4.22;;;7.60;99.90;;;;;;5091166;28;20040;-71
2021/12/19 11:06:18;;;;;;;18.40;3.78;;;7.50;99.90;;;;;;5092010;28;20134;-70
2021/12/19 11:08:45;;;;;;;12.50;4.20;;;7.60;99.90;;;;;;5092693;28;20036;-74
2021/12/19 11:11:12;;;;;;;13.32;4.03;;;7.50;99.90;;;;;;5093226;28;20032;-73
2021/12/19 11:13:39;;;;;;;13.00;3.92;;;7.60;99.90;;;;;;5092654;28;20450;-72
2021/12/19 11:16:05;;;;;;;16.25;4.68;;;7.60;99.90;;;;;;5095091;28;20476;-71
2021/12/19 11:18:31;;;;;;;16.27;5.10;;;7.60;99.90;;;;;;5092814;28;20427;-71
2021/12/19 11:20:57;;;;;;;15.63;5.10;;;7.60;99.90;;;;;;5127320;27;20382;-72
2021/12/19 11:23:35;;;;;;;18.02;5.15;;;7.60;99.90;;;;;;5108402;28;20143;-71
2021/12/19 11:26:01;;;;;;;16.90;5.50;;;7.60;99.90;;;;;;5076465;28;20441;-72
2021/12/19 11:28:33;;;;;;;14.13;4.63;;;7.60;99.90;;;;;;5127548;27;20036;-71
2021/12/19 11:30:59;;;;;;;14.80;4.72;;;7.60;99.90;;;;;;5119115;27;20127;-73
2021/12/19 11:33:56;;;;;;;16.05;3.83;;;7.60;99.90;;;;;;5092338;28;20032;-73
2021/12/19 11:36:22;;;;;;;17.75;4.30;;;7.60;99.90;;;;;;5092514;28;20051;-71
2021/12/19 11:38:48;;;;;;;17.15;4.45;;;7.60;99.90;;;;;;5092381;28;20032;-72
2021/12/19 11:41:14;;;;;;;17.35;4.35;;;7.60;99.90;;;;;;5092964;28;20040;-71
2021/12/19 11:43:43;;;;;;;11.38;4.85;;;7.60;99.90;;;;;;5091642;28;20040;-71
2021/12/19 11:46:22;;;;;;;14.10;4.18;;;7.60;99.90;;;;;;5088522;28;20055;-73
2021/12/19 11:49:19;;;;;;;16.05;4.97;;;7.60;99.90;;;;;;5106610;28;20433;-71
2021/12/19 11:51:45;;;;;;;17.80;4.93;;;7.60;99.90;;;;;;5121643;27;20477;-71
2021/12/19 11:54:13;;;;;;;15.32;4.15;;;7.60;99.90;;;;;;5091559;28;20043;-71
2021/12/19 11:56:38;;;;;;;19.38;3.80;;;7.60;99.90;;;;;;5092739;28;20036;-73
2021/12/19 11:59:18;;;;;;;18.35;4.20;;;7.70;99.90;;;;;;5092109;28;20089;-71
2021/12/19 12:01:44;;;;;;;15.20;4.07;;;7.70;99.90;;;;;;5091500;28;20035;-71
2021/12/19 12:04:18;;;;;;;38.05;15.55;;;7.70;99.90;;;;;;5091712;28;20036;-71
2021/12/19 12:06:58;;;;;;;20.38;4.57;;;7.70;99.90;;;;;;5126359;27;20089;-71
2021/12/19 12:09:39;;;;;;;20.38;5.97;;;7.70;99.90;;;;;;5090200;28;20055;-71
2021/12/19 12:12:11;;;;;;;23.25;10.77;;;7.70;99.90;;;;;;5126135;27;20037;-71
2021/12/19 12:14:47;;;;;;;20.52;4.88;;;7.70;99.90;;;;;;5092024;28;20047;-73
2021/12/19 12:17:21;;;;;;;15.50;7.45;;;7.70;99.90;;;;;;5125293;27;20494;-70
2021/12/19 12:19:50;;;;;;;26.10;12.30;;;7.70;99.90;;;;;;5092358;28;20040;-72
2021/12/19 12:22:27;;;;;;;18.55;7.00;;;7.70;99.90;;;;;;5091081;28;20131;-72
2021/12/19 12:25:03;;;;;;;36.75;13.20;;;7.80;99.90;;;;;;5089055;28;20060;-73
2021/12/19 12:27:52;;;;;;;43.03;19.35;;;7.70;99.90;;;;;;5090911;28;20036;-71
2021/12/19 12:30:26;;;;;;;18.10;6.43;;;7.70;99.90;;;;;;5090875;28;20042;-72
2021/12/19 12:32:53;;;;;;;15.32;5.45;;;7.70;99.90;;;;;;5091923;28;20092;-72
2021/12/19 12:35:20;;;;;;;116.20;50.80;;;7.70;99.90;;;;;;5092520;28;20040;-74
2021/12/19 12:37:48;;;;;;;36.42;14.57;;;7.80;99.90;;;;;;5092747;28;20036;-75
2021/12/19 12:40:32;;;;;;;47.33;22.27;;;7.70;99.90;;;;;;5072905;28;20040;-72
2021/12/19 12:43:10;;;;;;;23.58;9.05;;;7.70;99.90;;;;;;5090776;28;20046;-75
2021/12/19 12:46:12;;;;;;;48.08;20.15;;;7.70;99.90;;;;;;5091096;28;20063;-73
2021/12/19 12:48:39;;;;;;;49.88;20.85;;;7.80;99.90;;;;;;5088268;28;20470;-73
2021/12/19 12:51:31;;;;;;;29.23;10.60;;;7.80;99.90;;;;;;5090727;28;20070;-72
2021/12/19 12:54:26;;;;;;;30.33;11.43;;;7.80;99.90;;;;;;5090348;28;20079;-74
2021/12/19 12:56:54;;;;;;;22.60;9.02;;;7.80;99.90;;;;;;5121335;28;20055;-74
2021/12/19 12:59:36;;;;;;;59.25;21.63;;;7.80;99.90;;;;;;5090493;28;20054;-74
2021/12/19 13:04:34;;;;;;;27.05;9.50;;;7.80;99.90;;;;;;5091640;28;20056;-76
2021/12/19 13:07:05;;;;;;;80.15;25.73;;;7.80;99.90;;;;;;5074680;28;20078;-73
2021/12/19 13:09:36;;;;;;;32.65;11.13;;;7.80;99.90;;;;;;5078249;28;20047;-72
2021/12/19 13:12:07;;;;;;;29.08;7.70;;;7.80;99.90;;;;;;5109030;28;20044;-73
2021/12/19 13:14:35;;;;;;;60.30;21.58;;;7.80;99.90;;;;;;5073513;28;20046;-74
2021/12/19 13:17:03;;;;;;;59.17;20.85;;;7.80;99.90;;;;;;5090607;28;20053;-74
2021/12/19 13:20:06;;;;;;;67.28;23.20;;;7.80;99.90;;;;;;5089844;28;20058;-74
2021/12/19 13:22:47;;;;;;;96.88;34.25;;;7.80;99.90;;;;;;5091251;28;20493;-74
2021/12/19 13:25:23;;;;;;;65.15;23.70;;;7.80;99.90;;;;;;5091159;28;20044;-73
2021/12/19 13:27:54;;;;;;;107.57;36.22;;;7.80;99.90;;;;;;5089307;28;20089;-72
2021/12/19 13:30:23;;;;;;;51.25;15.63;;;7.80;99.90;;;;;;5089904;28;20111;-74
2021/12/19 13:32:54;;;;;;;57.40;24.80;;;7.80;99.90;;;;;;5092154;28;20062;-72
2021/12/19 13:35:25;;;;;;;78.55;27.00;;;7.80;99.90;;;;;;5089460;28;20044;-73
2021/12/19 13:38:17;;;;;;;42.28;13.75;;;7.80;99.90;;;;;;5091108;28;20081;-73
2021/12/19 13:40:55;;;;;;;25.65;7.90;;;7.80;99.90;;;;;;5093272;28;20505;-72
2021/12/19 13:43:26;;;;;;;22.20;5.82;;;7.80;99.90;;;;;;5093150;28;20475;-74
2021/12/19 13:46:05;;;;;;;38.55;14.75;;;7.80;99.90;;;;;;5088553;28;20059;-72
2021/12/19 13:48:42;;;;;;;18.33;5.45;;;7.80;99.90;;;;;;5074680;28;20063;-73
2021/12/19 13:51:12;;;;;;;15.30;4.43;;;7.80;99.90;;;;;;5078562;28;20423;-75
2021/12/19 13:53:58;;;;;;;17.77;4.13;;;7.80;99.90;;;;;;5093527;28;20027;-75
2021/12/19 13:56:31;;;;;;;17.75;3.75;;;7.80;99.90;;;;;;5091603;28;20533;-75
2021/12/19 13:59:06;;;;;;;20.58;3.20;;;7.80;99.90;;;;;;5093491;28;20493;-73
2021/12/19 14:01:40;;;;;;;24.27;4.25;;;7.80;99.90;;;;;;5093743;28;20086;-73